createdAt,value
2022-12-15T00:09:14.168Z,-4.8
2022-12-15T00:19:10.611Z,-4.8
2022-12-15T00:29:11.592Z,-5
2022-12-15T00:39:12.132Z,-4.9
2022-12-15T00:49:13.001Z,-5.3
2022-12-15T00:59:13.975Z,-5.3
2022-12-15T01:09:14.459Z,-5.1
2022-12-15T01:19:15.176Z,-4.9
2022-12-15T01:39:16.172Z,-4.6
2022-12-15T01:49:16.783Z,-4.5
2022-12-15T01:59:17.234Z,-4.5
2022-12-15T02:09:17.644Z,-4.3
2022-12-15T02:19:17.832Z,-4.3
2022-12-15T02:29:17.894Z,-4.4
2022-12-15T02:39:18.439Z,-4.1
2022-12-15T02:49:18.669Z,-4.3
2022-12-15T02:59:19.137Z,-4.5
2022-12-15T03:09:19.313Z,-4.3
2022-12-15T03:19:20.425Z,-4.2
2022-12-15T03:29:20.525Z,-4.2
2022-12-15T03:39:20.843Z,-4.2
2022-12-15T03:49:21.781Z,-4.2
2022-12-15T03:59:22.244Z,-4.1
2022-12-15T04:09:23.175Z,-4.2
2022-12-15T04:19:23.946Z,-4.3
2022-12-15T04:29:24.720Z,-4.2
2022-12-15T04:39:25.675Z,-4.3
2022-12-15T04:49:25.950Z,-4.3
2022-12-15T04:59:26.687Z,-4.3
2022-12-15T05:09:26.847Z,-4.3
2022-12-15T05:19:27.592Z,-4.3
2022-12-15T05:29:27.656Z,-4.3
2022-12-15T05:39:27.738Z,-4.2
2022-12-15T05:49:28.745Z,-4.2
2022-12-15T05:59:29.431Z,-4.3
2022-12-15T06:19:30.755Z,-4.6
2022-12-15T06:29:31.203Z,-4.7
2022-12-15T06:39:32.199Z,-4.8
2022-12-15T06:49:32.396Z,-4.6
2022-12-15T07:09:33.117Z,-4.5
2022-12-15T07:19:33.582Z,-4.4
2022-12-15T07:29:33.878Z,-4.7
2022-12-15T07:39:34.668Z,-4.7
2022-12-15T07:49:35.090Z,-4.4
2022-12-15T07:59:35.220Z,-4.7
2022-12-15T08:09:35.349Z,-4.7
2022-12-15T08:19:35.567Z,-4.4
2022-12-15T08:29:51.320Z,-4.5
2022-12-15T08:39:36.315Z,-4.1
2022-12-15T08:49:37.085Z,-3.5
2022-12-15T08:59:37.223Z,-3.5
2022-12-15T09:09:38.103Z,-3.1
2022-12-15T09:19:38.362Z,-2.9
2022-12-15T09:29:38.836Z,-2.8
2022-12-15T09:39:39.064Z,-2.5
2022-12-15T09:49:39.979Z,-2.1
2022-12-15T09:59:40.359Z,-2.1
2022-12-15T10:09:41.249Z,-1.8
2022-12-15T10:39:42.518Z,-1
2022-12-15T11:09:44.401Z,0
2022-12-15T11:19:44.909Z,0.2
2022-12-15T11:29:45.579Z,0.8
2022-12-15T11:39:46.020Z,1.3
2022-12-15T11:49:46.526Z,1.7
2022-12-15T11:59:47.226Z,2.2
2022-12-15T12:09:48.638Z,2.3
2022-12-15T12:29:48.889Z,1.1
2022-12-15T12:49:50.176Z,1.1
2022-12-15T12:59:50.475Z,1.1
2022-12-15T13:09:51.546Z,1.2
2022-12-15T13:19:53.837Z,1.4
2022-12-15T13:29:53.294Z,1.4
2022-12-15T13:39:53.872Z,1.4
2022-12-15T13:50:01.000Z,1.3
2022-12-15T14:19:55.830Z,1.2
2022-12-15T14:49:57.189Z,1
2022-12-15T15:19:58.257Z,0.4
2022-12-15T15:29:58.859Z,0.3
2022-12-15T16:00:00.732Z,-0.6
2022-12-15T16:10:00.816Z,-0.6
2022-12-15T16:20:01.610Z,-0.9
2022-12-15T16:30:02.277Z,-1.1
2022-12-15T16:40:03.272Z,-1.3
2022-12-15T16:50:03.818Z,-1.5
2022-12-15T17:10:27.604Z,-1.7
2022-12-15T17:20:31.040Z,-1.8
2022-12-15T17:30:12.561Z,-1.8
2022-12-15T17:40:12.619Z,-2.1
2022-12-15T17:50:13.055Z,-2
2022-12-15T18:00:13.379Z,-2.4
2022-12-15T18:30:14.933Z,-2.5
2022-12-15T18:40:15.480Z,-2.6
2022-12-15T18:50:16.195Z,-2.8
2022-12-15T19:00:16.570Z,-2.8
2022-12-15T19:10:17.141Z,-2.9
2022-12-15T19:20:17.672Z,-3.2
2022-12-15T19:30:18.192Z,-3.4
2022-12-15T19:40:18.614Z,-3.5
2022-12-15T19:50:19.136Z,-3.3
2022-12-15T20:00:19.574Z,-3.7
2022-12-15T20:20:20.302Z,-3.7
2022-12-15T20:30:20.588Z,-3.8
2022-12-15T20:40:21.069Z,-3.7
2022-12-15T20:50:21.696Z,-3.9
2022-12-15T21:00:22.662Z,-3.9
2022-12-15T21:10:23.113Z,-3.8
2022-12-15T21:20:23.264Z,-3.7
2022-12-15T21:50:25.109Z,-4.2
2022-12-15T22:10:25.645Z,-4.4
2022-12-15T22:30:26.959Z,-5.2
2022-12-15T22:40:27.887Z,-5.1
2022-12-15T22:50:28.117Z,-4.9
2022-12-15T23:20:31.025Z,-5.2
2022-12-15T23:30:31.836Z,-5.2
2022-12-15T23:40:32.497Z,-5.1
2022-12-15T23:50:32.809Z,-5.3
